Time;durP1;ratioP1;P1;durP2;ratioP2;P2;SDS_P1;SDS_P2;PMS_P1;PMS_P2;Temp;Humidity;BMP_temperature;BMP_pressure;BME280_temperature;BME280_humidity;BME280_pressure;Samples;Min_cycle;Max_cycle;Signal;HPM_P1;HPM_P2
2022/01/01 00:00:34;;;;;;;0.50;0.50;;;;;;;9.32;77.16;97906.84;29394;280;64004;-59
2022/01/01 00:01:09;;;;;;;0.50;0.50;;;;;;;9.33;77.03;97908.47;29395;274;63009;-60
2022/01/01 00:01:41;;;;;;;0.62;0.62;;;;;;;9.37;76.72;97912.28;29395;208;63013;-60
2022/01/01 00:02:13;;;;;;;0.50;0.50;;;;;;;9.35;76.91;97911.75;29395;214;63009;-64
2022/01/01 00:02:44;;;;;;;0.55;0.55;;;;;;;9.34;76.65;97904.69;29395;199;63004;-62
2022/01/01 00:03:19;;;;;;;0.50;0.50;;;;;;;9.33;76.76;97908.47;29395;221;63008;-60
2022/01/01 00:03:51;;;;;;;0.50;0.50;;;;;;;9.29;77.07;97912.78;29395;243;63004;-61
2022/01/01 00:04:22;;;;;;;0.50;0.50;;;;;;;9.25;76.97;97911.66;29395;267;63009;-60
2022/01/01 00:04:54;;;;;;;0.50;0.50;;;;;;;9.22;77.22;97906.75;29394;236;64005;-60
2022/01/01 00:05:26;;;;;;;0.50;0.50;;;;;;;9.21;77.46;97910.53;29394;449;64009;-59
2022/01/01 00:05:57;;;;;;;0.80;0.80;;;;;;;9.21;77.44;97910.53;29395;232;63005;-60
2022/01/01 00:06:29;;;;;;;0.60;0.60;;;;;;;9.24;77.34;97910.03;29395;202;63009;-60
2022/01/01 00:07:00;;;;;;;0.50;0.50;;;;;;;9.23;77.44;97908.41;29395;230;63008;-59
2022/01/01 00:07:31;;;;;;;0.50;0.50;;;;;;;9.23;77.26;97919.22;29395;508;63009;-60
2022/01/01 00:08:05;;;;;;;0.60;0.60;;;;;;;9.20;77.30;97910.81;29395;197;63002;-60
2022/01/01 00:08:37;;;;;;;0.50;0.50;;;;;;;9.19;77.63;97907.28;29395;250;63027;-60
2022/01/01 00:09:09;;;;;;;0.50;0.50;;;;;;;9.18;77.51;97916.47;29394;206;64004;-59
2022/01/01 00:09:42;;;;;;;0.50;0.50;;;;;;;9.18;77.75;97916.47;29395;441;63009;-59
2022/01/01 00:10:13;;;;;;;0.50;0.50;;;;;;;9.17;77.83;97914.84;29395;269;63015;-60
2022/01/01 00:10:54;;;;;;;0.50;0.50;;;;;;;9.29;77.01;97918.19;29394;500;64009;-63
2022/01/01 00:11:26;;;;;;;0.52;0.52;;;;;;;9.29;77.12;97918.19;29417;222;63005;-60
2022/01/01 00:11:57;;;;;;;0.50;0.50;;;;;;;9.30;76.93;97927.13;29395;235;63009;-59
2022/01/01 00:12:28;;;;;;;0.60;0.60;;;;;;;9.26;76.93;97917.91;29395;358;63005;-60
2022/01/01 00:12:59;;;;;;;0.50;0.50;;;;;;;9.20;77.45;97914.31;29395;299;63009;-61
2022/01/01 00:13:31;;;;;;;0.50;0.50;;;;;;;9.18;77.59;97916.47;29395;197;63008;-61
2022/01/01 00:14:03;;;;;;;0.50;0.50;;;;;;;9.16;77.71;97915.91;29395;217;63009;-60
2022/01/01 00:14:36;;;;;;;0.50;0.50;;;;;;;9.13;77.77;97913.72;29395;199;63013;-60
2022/01/01 00:15:08;;;;;;;0.50;0.50;;;;;;;9.20;77.38;97921.63;29395;209;63009;-60
2022/01/01 00:15:39;;;;;;;0.50;0.50;;;;;;;9.20;77.20;97925.16;29395;477;63004;-59
2022/01/01 00:16:12;;;;;;;0.50;0.50;;;;;;;9.16;77.43;97924.03;29394;234;64009;-62
2022/01/01 00:16:43;;;;;;;0.50;0.50;;;;;;;9.16;77.63;97918.63;29395;198;63004;-60
2022/01/01 00:17:15;;;;;;;0.50;0.50;;;;;;;9.18;77.70;97919.19;29395;254;63009;-60
2022/01/01 00:17:46;;;;;;;0.50;0.50;;;;;;;9.20;77.65;97919.75;29395;205;63004;-60
2022/01/01 00:18:17;;;;;;;0.60;0.60;;;;;;;9.19;77.37;97918.09;29395;197;63009;-60
2022/01/01 00:18:48;;;;;;;0.50;0.50;;;;;;;9.18;77.62;97916.47;29395;272;63005;-61
2022/01/01 00:19:20;;;;;;;0.55;0.55;;;;;;;9.23;77.48;97921.94;29395;388;63009;-63
2022/01/01 00:19:51;;;;;;;0.50;0.50;;;;;;;9.31;76.97;97926.88;29394;221;64005;-59
2022/01/01 00:20:22;;;;;;;0.70;0.70;;;;;;;9.31;76.78;97921.47;29395;202;63009;-59
2022/01/01 00:20:53;;;;;;;0.50;0.50;;;;;;;9.32;77.03;97925.81;29395;272;63005;-61
2022/01/01 00:21:25;;;;;;;0.50;0.50;;;;;;;9.31;77.20;97920.66;29395;217;63009;-61
2022/01/01 00:22:06;;;;;;;0.50;0.50;;;;;;;9.35;77.01;97917.16;29395;202;63000;-59
2022/01/01 00:22:38;;;;;;;13.18;12.52;;;;;;;9.34;76.78;97920.13;29406;307;66018;-59
2022/01/01 00:23:09;;;;;;;0.60;0.60;;;;;;;9.32;76.83;97923.09;29395;249;63004;-58
2022/01/01 00:23:42;;;;;;;0.50;0.50;;;;;;;9.36;77.27;97929.59;29395;443;63009;-57
2022/01/01 00:24:14;;;;;;;0.50;0.50;;;;;;;9.35;77.26;97922.59;29395;253;63004;-61
2022/01/01 00:24:46;;;;;;;0.50;0.50;;;;;;;9.36;77.23;97924.19;29395;199;63009;-59
2022/01/01 00:25:17;;;;;;;0.50;0.50;;;;;;;9.46;76.44;97919.91;29395;293;63004;-60
2022/01/01 00:25:49;;;;;;;1.17;1.17;;;;;;;9.51;76.70;97925.38;29395;361;63009;-64
2022/01/01 00:26:21;;;;;;;0.50;0.50;;;;;;;9.57;76.14;97929.75;29395;203;63011;-60
2022/01/01 00:26:52;;;;;;;0.50;0.50;;;;;;;9.53;76.11;97921.34;29395;288;63009;-60
2022/01/01 00:27:23;;;;;;;0.50;0.50;;;;;;;9.50;76.36;97918.34;29394;250;64005;-57
2022/01/01 00:27:55;;;;;;;0.50;0.50;;;;;;;9.47;76.54;97924.25;29395;268;63009;-58
2022/01/01 00:28:26;;;;;;;0.68;0.68;;;;;;;9.45;76.73;97921.00;29395;222;63005;-62
2022/01/01 00:28:57;;;;;;;0.50;0.50;;;;;;;9.46;76.70;97925.34;29395;319;63009;-62
2022/01/01 00:29:29;;;;;;;0.50;0.50;;;;;;;9.47;76.93;97921.56;29395;197;63005;-58
2022/01/01 00:30:01;;;;;;;0.50;0.50;;;;;;;9.48;76.85;97925.91;29395;257;63009;-66
2022/01/01 00:30:32;;;;;;;0.50;0.50;;;;;;;9.57;76.54;97921.63;29395;235;63004;-58
2022/01/01 00:31:05;;;;;;;0.52;0.52;;;;;;;9.58;76.22;97915.13;29395;202;63009;-60
2022/01/01 00:31:36;;;;;;;0.50;0.50;;;;;;;9.59;76.57;97930.31;29395;221;63015;-61
2022/01/01 00:32:07;;;;;;;0.50;0.50;;;;;;;9.67;75.95;97929.84;29394;231;64000;-60
2022/01/01 00:32:39;;;;;;;0.82;0.82;;;;;;;9.69;75.77;97928.50;29395;198;63004;-57
2022/01/01 00:33:11;;;;;;;0.50;0.50;;;;;;;9.65;75.99;97926.56;29395;237;63008;-62
2022/01/01 00:33:42;;;;;;;0.73;0.73;;;;;;;9.66;76.05;97925.50;29395;259;63005;-61
2022/01/01 00:34:14;;;;;;;0.50;0.50;;;;;;;9.64;76.00;97924.94;29395;313;63019;-59
2022/01/01 00:34:45;;;;;;;0.50;0.50;;;;;;;9.65;75.98;97927.37;29395;216;63005;-61
2022/01/01 00:35:16;;;;;;;0.50;0.50;;;;;;;9.62;76.27;97927.09;29395;200;63009;-62
2022/01/01 00:35:47;;;;;;;0.50;0.50;;;;;;;9.61;76.45;97926.28;29395;224;63005;-61
2022/01/01 00:36:18;;;;;;;0.50;0.50;;;;;;;9.64;76.03;97925.75;29395;202;63009;-61
2022/01/01 00:36:49;;;;;;;0.50;0.50;;;;;;;9.65;76.31;97930.09;29395;234;63005;-60
2022/01/01 00:37:21;;;;;;;0.50;0.50;;;;;;;9.64;76.10;97930.34;29394;321;64009;-60
2022/01/01 00:37:52;;;;;;;0.50;0.50;;;;;;;9.66;75.97;97928.19;29395;203;63004;-60
2022/01/01 00:38:25;;;;;;;0.50;0.50;;;;;;;9.65;75.90;97926.56;29395;199;63016;-60
2022/01/01 00:39:00;;;;;;;0.50;0.50;;;;;;;9.62;76.36;97932.50;29395;212;63004;-61
2022/01/01 00:39:32;;;;;;;0.50;0.50;;;;;;;9.64;76.02;97924.94;29395;262;63009;-67
2022/01/01 00:40:04;;;;;;;0.50;0.50;;;;;;;9.65;75.93;97921.97;29395;235;63004;-62
2022/01/01 00:40:35;;;;;;;0.50;0.50;;;;;;;9.71;75.89;97925.50;29395;204;63008;-61
2022/01/01 00:41:06;;;;;;;0.50;0.50;;;;;;;9.72;75.86;97927.94;29395;260;63005;-61
2022/01/01 00:41:38;;;;;;;0.60;0.60;;;;;;;9.74;75.46;97927.69;29394;259;64009;-62
2022/01/01 00:42:10;;;;;;;0.50;0.50;;;;;;;9.72;75.49;97917.09;29394;225;64005;-60
2022/01/01 00:42:45;;;;;;;0.50;0.50;;;;;;;9.73;75.61;97928.75;29395;197;63009;-57
2022/01/01 00:43:16;;;;;;;0.60;0.60;;;;;;;9.77;75.43;97929.88;29395;251;63005;-68
2022/01/01 00:43:47;;;;;;;0.50;0.50;;;;;;;9.80;75.14;97926.66;29395;207;63009;-58
2022/01/01 00:44:18;;;;;;;0.50;0.50;;;;;;;9.86;74.93;97928.31;29394;197;64005;-60
2022/01/01 00:44:50;;;;;;;0.50;0.50;;;;;;;9.81;74.94;97928.28;29395;212;63009;-60
2022/01/01 00:45:23;;;;;;;4.40;2.15;;;;;;;9.79;75.49;97927.72;29395;202;63004;-73
2022/01/01 00:45:54;;;;;;;0.50;0.50;;;;;;;9.79;75.21;97929.63;29395;197;63009;-63
2022/01/01 00:46:25;;;;;;;0.50;0.50;;;;;;;9.80;75.48;97929.34;29395;238;63004;-63
2022/01/01 00:46:57;;;;;;;0.50;0.50;;;;;;;9.79;75.50;97922.31;29394;197;64009;-61
2022/01/01 00:47:29;;;;;;;0.50;0.50;;;;;;;9.77;75.62;97929.06;29395;498;63004;-61
2022/01/01 00:48:00;;;;;;;0.77;0.77;;;;;;;9.74;75.51;97923.09;29395;406;63008;-59
2022/01/01 00:48:34;;;;;;;0.50;0.50;;;;;;;9.69;75.87;97923.06;29395;260;63005;-62
2022/01/01 00:49:06;;;;;;;0.50;0.50;;;;;;;9.73;75.48;97924.16;29394;373;64009;-61
2022/01/01 00:49:39;;;;;;;0.50;0.50;;;;;;;9.73;75.83;97931.47;29395;337;63017;-64
2022/01/01 00:50:11;;;;;;;0.50;0.50;;;;;;;9.74;75.37;97922.25;29395;240;63009;-60
2022/01/01 00:50:42;;;;;;;0.50;0.50;;;;;;;9.70;75.78;97926.59;29394;216;64005;-62
2022/01/01 00:51:17;;;;;;;0.50;0.50;;;;;;;9.73;75.65;97926.06;29395;250;63013;-59
2022/01/01 00:51:48;;;;;;;0.50;0.50;;;;;;;9.78;75.61;97919.84;29394;196;64005;-67
2022/01/01 00:52:20;;;;;;;0.73;0.73;;;;;;;9.81;75.30;97920.16;29395;243;63005;-61
2022/01/01 00:52:52;;;;;;;1.08;1.08;;;;;;;9.79;75.73;97925.00;29395;215;63004;-57
2022/01/01 00:53:24;;;;;;;0.50;0.50;;;;;;;9.75;75.65;97915.78;29395;197;63009;-61
2022/01/01 00:53:55;;;;;;;0.50;0.50;;;;;;;9.73;75.78;97923.34;29395;197;63004;-61
2022/01/01 00:54:27;;;;;;;0.60;0.60;;;;;;;9.74;75.95;97924.97;29395;197;63004;-61
2022/01/01 00:54:59;;;;;;;0.50;0.50;;;;;;;9.75;76.25;97926.59;29395;352;63004;-58
2022/01/01 00:55:31;;;;;;;0.50;0.50;;;;;;;9.74;75.94;97923.09;29395;223;63008;-62
2022/01/01 00:56:02;;;;;;;0.50;0.50;;;;;;;9.72;76.34;97929.84;29395;214;63011;-58
2022/01/01 00:56:33;;;;;;;0.50;0.50;;;;;;;9.72;76.11;97927.13;29395;249;63009;-69
2022/01/01 00:57:05;;;;;;;0.50;0.50;;;;;;;9.79;75.76;97937.75;29394;212;64005;-62
2022/01/01 00:57:37;;;;;;;0.52;0.52;;;;;;;9.79;76.02;97938.56;29395;381;63009;-58
2022/01/01 00:58:09;;;;;;;0.50;0.50;;;;;;;9.75;75.72;97934.75;29395;447;63005;-60
2022/01/01 00:58:40;;;;;;;0.50;0.50;;;;;;;9.73;75.86;97926.06;29394;224;64009;-62
2022/01/01 00:59:15;;;;;;;0.50;0.50;;;;;;;9.74;75.96;97938.53;29395;239;63005;-62
2022/01/01 00:59:46;;;;;;;0.50;0.50;;;;;;;9.69;76.35;97939.34;29395;321;63009;-61
2022/01/01 01:00:18;;;;;;;0.50;0.50;;;;;;;9.60;76.91;97934.66;29395;202;63004;-62
2022/01/01 01:00:51;;;;;;;0.50;0.50;;;;;;;9.52;77.01;97937.84;29395;241;63009;-61
2022/01/01 01:01:22;;;;;;;0.50;0.50;;;;;;;9.42;77.38;97933.16;29395;222;63004;-60
2022/01/01 01:01:54;;;;;;;0.50;0.50;;;;;;;9.35;78.00;97938.84;29395;210;63016;-62
2022/01/01 01:02:28;;;;;;;0.50;0.50;;;;;;;9.27;78.37;97936.59;29394;317;63996;-61
2022/01/01 01:02:59;;;;;;;0.88;0.88;;;;;;;9.22;78.17;97933.03;29395;249;63008;-61
2022/01/01 01:03:31;;;;;;;0.50;0.50;;;;;;;9.19;78.49;97937.06;29395;198;63004;-61
2022/01/01 01:04:03;;;;;;;0.45;0.45;;;;;;;9.21;77.36;97943.03;29395;249;63009;-62
2022/01/01 01:04:34;;;;;;;0.50;0.50;;;;;;;9.16;77.26;97947.59;29394;262;64005;-62
2022/01/01 01:05:06;;;;;;;0.50;0.50;;;;;;;9.10;77.51;97946.72;29395;223;63009;-61
2022/01/01 01:05:39;;;;;;;0.50;0.50;;;;;;;9.08;78.22;97948.88;29395;225;63005;-62
2022/01/01 01:06:14;;;;;;;0.50;0.50;;;;;;;9.03;78.25;97946.13;29395;321;63023;-61
2022/01/01 01:06:45;;;;;;;0.50;0.50;;;;;;;8.98;78.51;97944.22;29395;212;63005;-61
2022/01/01 01:07:16;;;;;;;0.50;0.50;;;;;;;8.95;78.84;97933.06;29395;222;63009;-60
2022/01/01 01:07:47;;;;;;;0.50;0.50;;;;;;;8.93;79.00;97941.44;29394;227;64004;-60
2022/01/01 01:08:18;;;;;;;1.20;1.20;;;;;;;8.89;78.85;97939.50;29395;337;63009;-62
2022/01/01 01:08:51;;;;;;;0.50;0.50;;;;;;;8.84;79.25;97936.75;29395;262;63004;-61
2022/01/01 01:09:30;;;;;;;0.50;0.50;;;;;;;8.82;79.19;97941.59;29395;197;63009;-61
2022/01/01 01:10:03;;;;;;;0.60;0.60;;;;;;;8.80;79.47;97935.63;29395;406;63004;-58
2022/01/01 01:10:36;;;;;;;0.50;0.50;;;;;;;8.78;79.75;97929.66;29395;256;63024;-61
2022/01/01 01:11:08;;;;;;;0.50;0.50;;;;;;;8.74;80.20;97935.56;29395;238;63005;-60
2022/01/01 01:11:45;;;;;;;0.50;0.50;;;;;;;8.71;79.91;97935.25;29395;213;63009;-60
2022/01/01 01:12:23;;;;;;;0.52;0.52;;;;;;;8.68;80.27;97933.88;29394;242;64005;-61
2022/01/01 01:12:54;;;;;;;0.50;0.50;;;;;;;8.67;80.26;97936.84;29395;242;63009;-61
2022/01/01 01:13:29;;;;;;;0.50;0.50;;;;;;;8.64;80.79;97932.78;29395;231;63005;-58
2022/01/01 01:14:07;;;;;;;0.50;0.50;;;;;;;8.63;80.90;97939.25;29395;213;63009;-60
2022/01/01 01:14:42;;;;;;;0.50;0.50;;;;;;;8.60;80.67;97944.38;29394;253;64004;-61
2022/01/01 01:15:18;;;;;;;0.50;0.50;;;;;;;8.59;80.68;97930.03;29395;221;63009;-61
2022/01/01 01:15:54;;;;;;;0.50;0.50;;;;;;;8.56;80.58;97941.34;29395;231;63004;-59
2022/01/01 01:16:28;;;;;;;0.50;0.50;;;;;;;8.55;81.01;97936.19;29395;538;63009;-60
2022/01/01 01:17:00;;;;;;;0.50;0.50;;;;;;;8.55;80.88;97941.59;29394;204;64004;-61
2022/01/01 01:17:32;;;;;;;0.50;0.50;;;;;;;8.54;80.75;97942.66;29395;241;63008;-61
2022/01/01 01:18:04;;;;;;;0.50;0.50;;;;;;;8.52;81.07;97940.22;29395;286;63017;-61
2022/01/01 01:18:35;;;;;;;0.50;0.50;;;;;;;8.51;80.94;97938.59;29395;302;63009;-60
2022/01/01 01:19:07;;;;;;;0.50;0.50;;;;;;;8.52;80.98;97944.81;29395;264;63005;-61
2022/01/01 01:19:39;;;;;;;0.50;0.50;;;;;;;8.52;81.52;97948.31;29395;197;63009;-60
2022/01/01 01:20:11;;;;;;;0.52;0.52;;;;;;;8.51;81.37;97941.28;29395;206;63005;-61
2022/01/01 01:20:44;;;;;;;0.50;0.50;;;;;;;8.49;81.56;97940.72;29394;265;64009;-60
2022/01/01 01:21:15;;;;;;;0.50;0.50;;;;;;;8.49;81.45;97940.72;29395;267;63005;-60
2022/01/01 01:21:48;;;;;;;0.50;0.50;;;;;;;8.49;81.41;97935.31;29395;231;63009;-60
2022/01/01 01:22:20;;;;;;;1.02;1.02;;;;;;;8.50;81.61;97936.13;29394;237;64004;-60
2022/01/01 01:22:51;;;;;;;0.50;0.50;;;;;;;8.50;81.54;97936.94;29395;273;63009;-60
2022/01/01 01:23:23;;;;;;;0.50;0.50;;;;;;;8.50;81.53;97930.72;29395;337;63004;-60
2022/01/01 01:23:54;;;;;;;0.50;0.50;;;;;;;8.51;81.69;97943.16;29395;214;63009;-60
2022/01/01 01:24:26;;;;;;;0.50;0.50;;;;;;;8.49;82.07;97939.91;29395;216;63004;-61
2022/01/01 01:24:59;;;;;;;0.50;0.50;;;;;;;8.48;81.65;97939.09;29395;219;63008;-61
2022/01/01 01:25:38;;;;;;;0.50;0.50;;;;;;;8.48;81.66;97939.09;29395;241;63010;-61
2022/01/01 01:26:09;;;;;;;0.50;0.50;;;;;;;8.49;81.56;97945.31;29394;254;64009;-61
2022/01/01 01:26:49;;;;;;;0.50;0.50;;;;;;;8.49;81.68;97940.72;29395;247;63005;-60
2022/01/01 01:27:23;;;;;;;0.50;0.50;;;;;;;8.49;81.74;97940.72;29395;211;63009;-60
2022/01/01 01:27:55;;;;;;;0.50;0.50;;;;;;;8.47;81.80;97948.28;29395;208;63005;-60
2022/01/01 01:28:28;;;;;;;0.50;0.50;;;;;;;8.51;81.55;97944.00;29395;234;63009;-59
2022/01/01 01:29:02;;;;;;;0.50;0.50;;;;;;;8.52;81.86;97944.81;29395;236;63005;-60
2022/01/01 01:29:37;;;;;;;0.50;0.50;;;;;;;8.53;81.94;97947.25;29395;208;63009;-60
2022/01/01 01:30:13;;;;;;;0.50;0.50;;;;;;;8.54;81.71;97942.66;29394;218;64004;-60
2022/01/01 01:30:46;;;;;;;0.50;0.50;;;;;;;8.54;81.73;97943.47;29395;215;63009;-58
2022/01/01 01:31:19;;;;;;;0.50;0.50;;;;;;;8.55;81.64;97945.13;29394;265;64004;-60
2022/01/01 01:31:50;;;;;;;0.50;0.50;;;;;;;8.57;81.50;97942.97;29395;254;63009;-60
2022/01/01 01:32:22;;;;;;;0.50;0.50;;;;;;;8.60;81.75;97952.47;29395;227;63004;-61
2022/01/01 01:32:53;;;;;;;0.50;0.50;;;;;;;8.60;81.77;97947.06;29395;211;63019;-60
2022/01/01 01:33:26;;;;;;;0.50;0.50;;;;;;;8.60;81.71;97947.88;29395;297;63005;-60
2022/01/01 01:33:58;;;;;;;0.50;0.50;;;;;;;8.58;81.81;97950.03;29395;218;63009;-60
2022/01/01 01:34:30;;;;;;;0.45;0.45;;;;;;;8.59;81.65;97943.53;29395;335;63005;-60
2022/01/01 01:35:02;;;;;;;0.50;0.50;;;;;;;8.62;81.71;97951.16;29395;213;63009;-62
2022/01/01 01:35:35;;;;;;;0.50;0.50;;;;;;;8.68;81.76;97955.53;29394;290;64005;-61
2022/01/01 01:36:07;;;;;;;0.50;0.50;;;;;;;8.73;81.02;97949.34;29395;287;63009;-58
2022/01/01 01:36:39;;;;;;;0.50;0.50;;;;;;;8.76;80.92;97945.31;29395;211;63005;-59
2022/01/01 01:37:11;;;;;;;0.50;0.50;;;;;;;8.77;81.21;97946.94;29395;224;63009;-60
2022/01/01 01:37:42;;;;;;;0.50;0.50;;;;;;;8.76;81.39;97942.63;29395;211;63004;-60
2022/01/01 01:38:14;;;;;;;0.50;0.50;;;;;;;8.77;81.02;97952.38;29395;211;63009;-60
2022/01/01 01:38:48;;;;;;;0.50;0.50;;;;;;;8.78;81.25;97948.59;29395;196;63004;-60
2022/01/01 01:39:21;;;;;;;0.50;0.50;;;;;;;8.78;81.17;97948.59;29394;411;64009;-61
2022/01/01 01:39:54;;;;;;;0.50;0.50;;;;;;;8.77;81.60;97945.06;29395;220;63004;-60
2022/01/01 01:40:26;;;;;;;1.23;1.23;;;;;;;8.77;81.62;97942.34;29395;275;63008;-59
2022/01/01 01:41:00;;;;;;;0.50;0.50;;;;;;;8.77;81.25;97952.38;29395;227;63005;-61
2022/01/01 01:41:32;;;;;;;0.50;0.50;;;;;;;8.78;81.42;97944.00;29395;232;63009;-60
2022/01/01 01:42:04;;;;;;;0.50;0.50;;;;;;;8.78;81.27;97945.88;29395;216;63005;-60
2022/01/01 01:42:35;;;;;;;0.50;0.50;;;;;;;8.78;81.52;97943.19;29395;242;63009;-61
2022/01/01 01:43:10;;;;;;;0.50;0.50;;;;;;;8.77;81.63;97946.94;29394;202;64005;-61
2022/01/01 01:43:42;;;;;;;0.50;0.50;;;;;;;8.78;81.24;97943.19;29395;267;63009;-60
2022/01/01 01:44:36;;;;;;;0.50;0.50;;;;;;;8.78;81.59;97943.19;29395;211;63005;-61
2022/01/01 01:45:14;;;;;;;0.50;0.50;;;;;;;8.78;81.22;97933.16;29394;202;64009;-60
2022/01/01 01:45:48;;;;;;;0.50;0.50;;;;;;;8.79;81.58;97944.81;29395;294;63004;-60
2022/01/01 01:46:19;;;;;;;0.60;0.60;;;;;;;8.81;81.29;97948.06;29395;198;63009;-61
2022/01/01 01:46:51;;;;;;;0.50;0.50;;;;;;;8.81;81.63;97948.91;29395;254;63005;-61
2022/01/01 01:47:31;;;;;;;0.55;0.55;;;;;;;8.82;81.62;97938.88;29394;201;64008;-60
2022/01/01 01:48:04;;;;;;;0.50;0.50;;;;;;;8.83;81.50;97945.94;29417;273;63005;-61
2022/01/01 01:48:37;;;;;;;0.50;0.50;;;;;;;8.82;81.36;97947.00;29395;205;63009;-60
2022/01/01 01:49:09;;;;;;;0.50;0.50;;;;;;;8.81;81.41;97943.50;29395;211;63005;-60
2022/01/01 01:49:40;;;;;;;0.50;0.50;;;;;;;8.83;81.43;97941.34;29395;253;63009;-60
2022/01/01 01:50:14;;;;;;;0.50;0.50;;;;;;;8.82;81.59;97944.31;29395;197;63005;-60
2022/01/01 01:50:46;;;;;;;0.50;0.50;;;;;;;8.82;81.71;97944.31;29395;236;63019;-61
2022/01/01 01:51:17;;;;;;;0.50;0.50;;;;;;;8.82;82.03;97938.88;29394;199;64005;-58
2022/01/01 01:51:49;;;;;;;0.60;0.60;;;;;;;8.83;81.50;97938.62;29394;234;64009;-60
2022/01/01 01:52:25;;;;;;;0.50;0.50;;;;;;;8.86;81.45;97940.84;29395;239;63000;-60
2022/01/01 01:52:58;;;;;;;0.50;0.50;;;;;;;8.86;81.25;97942.72;29395;204;63009;-59
2022/01/01 01:53:32;;;;;;;0.50;0.50;;;;;;;8.85;81.12;97939.19;29395;252;63004;-59
2022/01/01 01:54:06;;;;;;;0.50;0.50;;;;;;;8.87;81.22;97947.06;29395;269;63009;-58
2022/01/01 01:54:38;;;;;;;0.50;0.50;;;;;;;8.84;81.34;97942.16;29395;219;63004;-60
2022/01/01 01:55:11;;;;;;;0.50;0.50;;;;;;;8.84;81.36;97942.16;29395;258;63008;-60
2022/01/01 01:55:42;;;;;;;0.50;0.50;;;;;;;8.83;81.25;97946.75;29394;257;64005;-60
2022/01/01 01:56:14;;;;;;;0.50;0.50;;;;;;;8.84;81.12;97944.88;29395;203;63009;-60
2022/01/01 01:56:46;;;;;;;0.50;0.50;;;;;;;8.85;81.65;97949.22;29394;270;64005;-61
2022/01/01 01:57:18;;;;;;;0.50;0.50;;;;;;;8.86;81.35;97940.00;29395;305;63009;-59
2022/01/01 01:57:50;;;;;;;0.50;0.50;;;;;;;8.87;81.25;97947.06;29395;337;63005;-59
2022/01/01 01:58:22;;;;;;;0.50;0.50;;;;;;;8.88;81.10;97946.00;29395;202;63009;-59
2022/01/01 01:58:56;;;;;;;0.50;0.50;;;;;;;8.89;81.33;97944.91;29394;230;64005;-60
2022/01/01 01:59:28;;;;;;;0.50;0.50;;;;;;;8.88;80.98;97944.09;29395;203;63009;-59
2022/01/01 02:00:00;;;;;;;0.50;0.50;;;;;;;8.88;81.18;97941.41;29395;272;63004;-58
2022/01/01 02:01:24;;;;;;;0.50;0.50;;;;;;;8.88;81.36;97948.69;29395;238;63004;-59
2022/01/01 02:01:55;;;;;;;0.50;0.50;;;;;;;8.87;81.37;97941.66;29395;314;63008;-60
2022/01/01 02:02:27;;;;;;;0.50;0.50;;;;;;;8.86;81.36;97935.41;29394;222;64004;-59
2022/01/01 02:02:58;;;;;;;0.50;0.50;;;;;;;8.88;81.59;97937.88;29395;252;63008;-58
2022/01/01 02:03:30;;;;;;;0.50;0.50;;;;;;;8.88;81.22;97940.56;29395;249;63005;-59
2022/01/01 02:04:02;;;;;;;0.50;0.50;;;;;;;8.88;81.42;97940.56;29395;456;63009;-59
2022/01/01 02:04:33;;;;;;;0.50;0.50;;;;;;;8.87;81.46;97937.06;29395;202;63005;-59
2022/01/01 02:05:09;;;;;;;0.50;0.50;;;;;;;8.86;81.11;97940.84;29395;420;63009;-59
2022/01/01 02:05:43;;;;;;;0.50;0.50;;;;;;;8.86;81.45;97945.44;29395;202;63005;-59
2022/01/01 02:06:16;;;;;;;0.50;0.50;;;;;;;8.85;81.25;97943.78;29395;458;63009;-59
2022/01/01 02:06:49;;;;;;;0.50;0.50;;;;;;;8.85;81.50;97949.22;29394;317;64004;-59
2022/01/01 02:07:24;;;;;;;0.50;0.50;;;;;;;8.85;81.19;97944.63;29395;197;63009;-58
2022/01/01 02:07:57;;;;;;;0.50;0.50;;;;;;;8.85;81.59;97954.62;29395;204;63004;-58
2022/01/01 02:08:28;;;;;;;0.50;0.50;;;;;;;8.85;81.48;97949.22;29395;236;63009;-59
2022/01/01 02:09:00;;;;;;;0.50;0.50;;;;;;;8.84;81.74;97947.56;29395;202;63004;-58
2022/01/01 02:09:32;;;;;;;0.60;0.60;;;;;;;8.82;81.48;97949.72;29395;253;63008;-59
2022/01/01 02:10:04;;;;;;;0.50;0.50;;;;;;;8.82;81.52;97949.72;29395;320;63005;-60
2022/01/01 02:10:36;;;;;;;0.50;0.50;;;;;;;8.82;81.72;97952.41;29395;221;63009;-59
2022/01/01 02:11:07;;;;;;;0.50;0.50;;;;;;;8.80;81.95;97951.84;29395;223;63015;-58
2022/01/01 02:11:39;;;;;;;0.50;0.50;;;;;;;8.80;81.70;97944.56;29395;365;63009;-59
2022/01/01 02:12:12;;;;;;;0.50;0.50;;;;;;;8.81;81.73;97945.38;29394;260;64005;-59
2022/01/01 02:12:48;;;;;;;0.50;0.50;;;;;;;8.78;81.58;97943.19;29395;254;63009;-60
2022/01/01 02:13:29;;;;;;;0.50;0.50;;;;;;;8.76;81.94;97945.31;29395;244;63008;-59
2022/01/01 02:14:03;;;;;;;0.50;0.50;;;;;;;8.73;82.00;97950.16;29417;231;63009;-58
2022/01/01 02:17:07;;;;;;;0.50;0.50;;;;;;;8.68;82.02;97958.22;29395;199;63004;-60
2022/01/01 02:17:39;;;;;;;0.50;0.50;;;;;;;8.67;81.95;97956.59;29394;224;64009;-59
2022/01/01 02:18:10;;;;;;;0.50;0.50;;;;;;;8.65;82.00;97956.06;29395;246;63005;-59
2022/01/01 02:18:44;;;;;;;0.50;0.50;;;;;;;8.67;82.20;97958.47;29395;223;63009;-59
2022/01/01 02:19:15;;;;;;;0.50;0.50;;;;;;;8.67;81.91;97950.37;29395;223;63005;-59
2022/01/01 02:19:59;;;;;;;0.50;0.50;;;;;;;8.66;82.10;97960.38;29394;197;64009;-58
2022/01/01 02:20:31;;;;;;;0.50;0.50;;;;;;;8.64;82.39;97953.59;29395;217;63005;-60
2022/01/01 02:21:05;;;;;;;0.50;0.50;;;;;;;8.63;82.17;97952.78;29395;202;63009;-59
2022/01/01 02:21:36;;;;;;;0.50;0.50;;;;;;;8.60;82.20;97950.59;29395;222;63009;-60
2022/01/01 02:22:08;;;;;;;0.50;0.50;;;;;;;8.60;82.45;97961.41;29395;202;63009;-58
2022/01/01 02:22:50;;;;;;;0.50;0.50;;;;;;;8.60;82.54;97958.72;29395;260;63004;-58
2022/01/01 02:23:26;;;;;;;0.50;0.50;;;;;;;8.60;82.41;97964.13;29394;226;64009;-59
2022/01/01 02:23:59;;;;;;;0.50;0.50;;;;;;;8.60;82.66;97963.31;29394;202;64004;-59
2022/01/01 02:24:31;;;;;;;0.50;0.50;;;;;;;8.59;82.66;97962.47;29395;240;63008;-59
2022/01/01 02:25:04;;;;;;;0.50;0.50;;;;;;;8.58;82.37;97954.62;29395;265;63005;-59
2022/01/01 02:25:36;;;;;;;0.50;0.50;;;;;;;8.56;82.77;97962.16;29395;254;63009;-59
2022/01/01 02:26:11;;;;;;;0.50;0.50;;;;;;;8.55;82.80;97955.94;29395;220;63005;-60
2022/01/01 02:26:44;;;;;;;0.50;0.50;;;;;;;8.54;82.61;97956.19;29395;267;63009;-59
2022/01/01 02:27:17;;;;;;;0.50;0.50;;;;;;;8.55;82.94;97961.34;29395;197;63005;-59
2022/01/01 02:27:48;;;;;;;0.50;0.50;;;;;;;8.54;82.67;97959.72;29395;205;63009;-59
2022/01/01 02:28:23;;;;;;;0.50;0.50;;;;;;;8.55;82.47;97960.53;29395;214;63005;-59
2022/01/01 02:28:54;;;;;;;0.50;0.50;;;;;;;8.55;82.63;97958.66;29395;265;63009;-58
2022/01/01 02:29:26;;;;;;;0.50;0.50;;;;;;;8.56;82.49;97960.28;29394;226;64014;-60
2022/01/01 02:29:57;;;;;;;0.50;0.50;;;;;;;8.54;82.48;97956.19;29395;209;63009;-59
2022/01/01 02:30:28;;;;;;;0.50;0.50;;;;;;;8.53;82.27;97952.66;29395;203;63004;-59
2022/01/01 02:31:00;;;;;;;0.50;0.50;;;;;;;8.52;82.70;97961.84;29395;196;63009;-60
2022/01/01 02:31:33;;;;;;;0.50;0.50;;;;;;;8.51;82.36;97957.50;29395;215;63004;-60
2022/01/01 02:32:09;;;;;;;0.50;0.50;;;;;;;8.51;82.58;97954.00;29395;219;63022;-60
2022/01/01 02:32:41;;;;;;;0.50;0.50;;;;;;;8.49;82.40;97956.94;29395;216;63005;-59
2022/01/01 02:33:13;;;;;;;0.50;0.50;;;;;;;8.49;82.81;97956.13;29395;231;63005;-58
2022/01/01 02:33:45;;;;;;;0.50;0.50;;;;;;;8.49;82.94;97962.34;29395;260;63005;-59
2022/01/01 02:34:16;;;;;;;0.50;0.50;;;;;;;8.48;82.69;97955.31;29395;236;63020;-58
2022/01/01 02:34:50;;;;;;;0.50;0.50;;;;;;;8.47;82.81;97958.28;29394;228;64005;-59
2022/01/01 02:35:22;;;;;;;0.50;0.50;;;;;;;8.47;83.09;97956.38;29395;278;63009;-60
2022/01/01 02:35:53;;;;;;;0.50;0.50;;;;;;;8.47;83.08;97961.78;29395;197;63005;-58
2022/01/01 02:36:37;;;;;;;0.50;0.50;;;;;;;8.47;82.85;97956.38;29395;267;63009;-58
2022/01/01 02:37:09;;;;;;;0.50;0.50;;;;;;;8.45;83.09;97957.69;29395;209;63004;-58
2022/01/01 02:37:41;;;;;;;0.50;0.50;;;;;;;8.42;83.20;97959.03;29395;212;63009;-59
2022/01/01 02:38:12;;;;;;;0.50;0.50;;;;;;;8.41;82.93;97965.50;29395;243;63004;-59
2022/01/01 02:38:44;;;;;;;0.50;0.50;;;;;;;8.41;83.04;97957.38;29395;202;63009;-60
2022/01/01 02:39:21;;;;;;;0.50;0.50;;;;;;;8.41;83.23;97957.38;29395;249;63004;-60
2022/01/01 02:39:52;;;;;;;0.50;0.50;;;;;;;8.40;83.10;97961.97;29394;204;64008;-58
2022/01/01 02:40:23;;;;;;;0.50;0.50;;;;;;;8.39;83.09;97956.81;29395;203;63005;-59
2022/01/01 02:40:56;;;;;;;0.50;0.50;;;;;;;8.39;83.25;97967.63;29395;209;63009;-59
2022/01/01 02:41:27;;;;;;;0.50;0.50;;;;;;;8.39;82.84;97962.22;29395;210;63008;-58